Aeroporto :







RITROVATECI SU...

 
LOGIN :

Iscrizione | Disclaimer

   EN    FR    IT 

 









Sommario :    VFR   VFR Marginale   IFR   IFR Intensivo   IFR Molto Intensivo
Visibilità : 
Base nubi : 
>= 8 km
>= 3000ft
5 / 8 km
1000 / 3000 ft
1500m / 5 km
500 / 1000 ft
800 / 1500m
200 / 500 ft
< 800m
< 200 ft
Simboli :   Temporali  Nebbia  Neve Forte  Precipitazioni Forti  Vento > 20 kt






- Altitudine del aeroporto : 328 ft


KGFL - Floyd Bennett Memorial

ULTIMO METAR :
  • 071353Z AUTO 28005KT 10SM CLR 11/M05 A2991 RMK AO2 SLP133 T01111050

METARs OBSOLETI :
  • 071253Z AUTO 28005KT 10SM CLR 09/M02 A2991 RMK AO2 SLP133 T00941022
  • 071153Z AUTO 00000KT 10SM CLR 04/M02 A2993 RMK AO2 SLP139 T00441017 10072 21011

TAF KGFL
Valido dal 07 a 12 ore il 08 a 12 ore UTC


071156Z 0712/0812 VRB03KT P6SM FEW050
FM071600 30007G15KT P6SM SCT080
FM080100 32003KT P6SM SCT010 BKN020
FM080300 02004KT P6SM VCSH BKN060



MetMap, La meteo Aeronautica in un colpo d'occhio ! - Copyright ORBIFLY Dicembre 2007 - Disclaimer

ORBIFLY MET'MAP TEAM :

Programmazione e sviluppo : Alexandra Zaïnal
Concezione : Baudouin d'Aumeries
Aiuto per la programmazione : Marc-Olivier Méhu
Supporto tecnico e logistico : Manuel Goepfert
Aiuto per la traduzione : Arnaldo La Scala

Contatto : metmap@orbifly.com




FONTI E CREDITI :

   NOAA